sensor_id;sensor_type;location;lat;lon;timestamp;P1;durP1;ratioP1;P2;durP2;ratioP2
44204;SDS011;30163;42.698;23.344;2023-03-14T00:00:07;19.98;;;9.75;;
44204;SDS011;30163;42.698;23.344;2023-03-14T00:02:35;25.98;;;10.65;;
44204;SDS011;30163;42.698;23.344;2023-03-14T00:05:01;31.63;;;10.32;;
44204;SDS011;30163;42.698;23.344;2023-03-14T00:07:31;23.48;;;9.82;;
44204;SDS011;30163;42.698;23.344;2023-03-14T00:10:00;23.92;;;11.15;;
44204;SDS011;30163;42.698;23.344;2023-03-14T00:12:26;24.02;;;11.35;;
44204;SDS011;30163;42.698;23.344;2023-03-14T00:14:51;27.88;;;11.93;;
44204;SDS011;30163;42.698;23.344;2023-03-14T00:17:17;21.67;;;10.50;;
44204;SDS011;30163;42.698;23.344;2023-03-14T00:19:42;26.15;;;11.50;;
44204;SDS011;30163;42.698;23.344;2023-03-14T00:22:07;19.85;;;9.52;;
44204;SDS011;30163;42.698;23.344;2023-03-14T00:24:33;24.80;;;10.52;;
44204;SDS011;30163;42.698;23.344;2023-03-14T00:26:58;20.20;;;9.30;;
44204;SDS011;30163;42.698;23.344;2023-03-14T00:29:24;20.35;;;9.35;;
44204;SDS011;30163;42.698;23.344;2023-03-14T00:31:49;14.77;;;8.18;;
44204;SDS011;30163;42.698;23.344;2023-03-14T00:34:15;13.90;;;7.68;;
44204;SDS011;30163;42.698;23.344;2023-03-14T00:36:40;17.15;;;8.50;;
44204;SDS011;30163;42.698;23.344;2023-03-14T00:39:05;22.42;;;8.38;;
44204;SDS011;30163;42.698;23.344;2023-03-14T00:41:31;22.98;;;8.85;;
44204;SDS011;30163;42.698;23.344;2023-03-14T00:43:56;15.30;;;8.13;;
44204;SDS011;30163;42.698;23.344;2023-03-14T00:46:21;18.95;;;8.35;;
44204;SDS011;30163;42.698;23.344;2023-03-14T00:48:47;20.42;;;8.05;;
44204;SDS011;30163;42.698;23.344;2023-03-14T00:51:12;13.07;;;6.35;;
44204;SDS011;30163;42.698;23.344;2023-03-14T00:53:40;13.43;;;7.57;;
44204;SDS011;30163;42.698;23.344;2023-03-14T00:56:07;16.83;;;7.82;;
44204;SDS011;30163;42.698;23.344;2023-03-14T00:58:34;16.27;;;7.75;;
44204;SDS011;30163;42.698;23.344;2023-03-14T01:01:04;12.02;;;6.88;;
44204;SDS011;30163;42.698;23.344;2023-03-14T01:03:31;11.50;;;6.72;;
44204;SDS011;30163;42.698;23.344;2023-03-14T01:06:06;14.20;;;6.68;;
44204;SDS011;30163;42.698;23.344;2023-03-14T01:08:32;13.98;;;7.30;;
44204;SDS011;30163;42.698;23.344;2023-03-14T01:10:57;11.88;;;6.45;;
44204;SDS011;30163;42.698;23.344;2023-03-14T01:13:23;12.80;;;7.60;;
44204;SDS011;30163;42.698;23.344;2023-03-14T01:15:48;17.08;;;6.38;;
44204;SDS011;30163;42.698;23.344;2023-03-14T01:18:13;15.48;;;7.40;;
44204;SDS011;30163;42.698;23.344;2023-03-14T01:20:39;16.27;;;6.88;;
44204;SDS011;30163;42.698;23.344;2023-03-14T01:23:04;10.60;;;7.15;;
44204;SDS011;30163;42.698;23.344;2023-03-14T01:25:29;12.07;;;7.18;;
44204;SDS011;30163;42.698;23.344;2023-03-14T01:27:55;13.90;;;6.22;;
44204;SDS011;30163;42.698;23.344;2023-03-14T01:30:20;13.27;;;6.68;;
44204;SDS011;30163;42.698;23.344;2023-03-14T01:32:46;17.83;;;7.80;;
44204;SDS011;30163;42.698;23.344;2023-03-14T01:35:11;14.32;;;6.88;;
44204;SDS011;30163;42.698;23.344;2023-03-14T01:37:36;17.42;;;7.85;;
44204;SDS011;30163;42.698;23.344;2023-03-14T01:40:02;14.85;;;6.88;;
44204;SDS011;30163;42.698;23.344;2023-03-14T01:42:28;16.73;;;7.40;;
44204;SDS011;30163;42.698;23.344;2023-03-14T01:44:58;16.85;;;7.68;;
44204;SDS011;30163;42.698;23.344;2023-03-14T01:47:25;18.92;;;7.68;;
44204;SDS011;30163;42.698;23.344;2023-03-14T01:50:12;17.73;;;7.50;;
44204;SDS011;30163;42.698;23.344;2023-03-14T01:55:09;15.98;;;7.63;;
44204;SDS011;30163;42.698;23.344;2023-03-14T01:57:42;18.13;;;8.45;;
44204;SDS011;30163;42.698;23.344;2023-03-14T02:00:11;15.73;;;7.35;;
44204;SDS011;30163;42.698;23.344;2023-03-14T02:02:39;15.57;;;7.60;;
44204;SDS011;30163;42.698;23.344;2023-03-14T02:05:07;19.85;;;7.45;;
44204;SDS011;30163;42.698;23.344;2023-03-14T02:07:34;14.75;;;7.20;;
44204;SDS011;30163;42.698;23.344;2023-03-14T02:10:11;19.50;;;7.72;;
44204;SDS011;30163;42.698;23.344;2023-03-14T02:12:36;19.95;;;7.18;;
44204;SDS011;30163;42.698;23.344;2023-03-14T02:15:02;13.60;;;7.28;;
44204;SDS011;30163;42.698;23.344;2023-03-14T02:17:28;13.68;;;7.00;;
44204;SDS011;30163;42.698;23.344;2023-03-14T02:20:03;17.17;;;8.25;;
44204;SDS011;30163;42.698;23.344;2023-03-14T02:22:37;15.73;;;7.32;;
44204;SDS011;30163;42.698;23.344;2023-03-14T02:27:34;17.30;;;7.82;;
44204;SDS011;30163;42.698;23.344;2023-03-14T02:30:01;17.90;;;9.10;;
44204;SDS011;30163;42.698;23.344;2023-03-14T02:32:29;14.52;;;7.80;;
44204;SDS011;30163;42.698;23.344;2023-03-14T02:34:57;24.17;;;7.97;;
44204;SDS011;30163;42.698;23.344;2023-03-14T02:37:27;23.60;;;8.63;;
44204;SDS011;30163;42.698;23.344;2023-03-14T02:39:58;20.50;;;7.85;;
44204;SDS011;30163;42.698;23.344;2023-03-14T02:42:23;14.93;;;8.07;;
44204;SDS011;30163;42.698;23.344;2023-03-14T02:45:36;24.58;;;8.90;;
44204;SDS011;30163;42.698;23.344;2023-03-14T02:47:34;25.65;;;12.32;;
44204;SDS011;30163;42.698;23.344;2023-03-14T02:50:11;40.60;;;15.00;;
44204;SDS011;30163;42.698;23.344;2023-03-14T02:52:38;30.85;;;14.10;;
44204;SDS011;30163;42.698;23.344;2023-03-14T02:55:04;30.67;;;14.50;;
44204;SDS011;30163;42.698;23.344;2023-03-14T02:57:30;37.25;;;13.85;;
44204;SDS011;30163;42.698;23.344;2023-03-14T02:59:58;37.97;;;14.10;;
44204;SDS011;30163;42.698;23.344;2023-03-14T03:02:24;28.58;;;14.68;;
44204;SDS011;30163;42.698;23.344;2023-03-14T03:04:50;38.55;;;15.63;;
44204;SDS011;30163;42.698;23.344;2023-03-14T03:07:15;40.95;;;17.10;;
44204;SDS011;30163;42.698;23.344;2023-03-14T03:09:41;39.05;;;17.27;;
44204;SDS011;30163;42.698;23.344;2023-03-14T03:12:06;36.95;;;17.95;;
44204;SDS011;30163;42.698;23.344;2023-03-14T03:14:32;46.03;;;18.92;;
44204;SDS011;30163;42.698;23.344;2023-03-14T03:16:57;38.63;;;16.45;;
44204;SDS011;30163;42.698;23.344;2023-03-14T03:19:22;45.00;;;17.60;;
44204;SDS011;30163;42.698;23.344;2023-03-14T03:21:48;46.80;;;18.15;;
44204;SDS011;30163;42.698;23.344;2023-03-14T03:24:13;47.35;;;19.75;;
44204;SDS011;30163;42.698;23.344;2023-03-14T03:26:39;50.38;;;21.65;;
44204;SDS011;30163;42.698;23.344;2023-03-14T03:29:04;47.85;;;21.58;;
44204;SDS011;30163;42.698;23.344;2023-03-14T03:31:29;47.55;;;21.90;;
44204;SDS011;30163;42.698;23.344;2023-03-14T03:33:56;58.25;;;22.92;;
44204;SDS011;30163;42.698;23.344;2023-03-14T03:36:22;61.40;;;23.33;;
44204;SDS011;30163;42.698;23.344;2023-03-14T03:38:48;57.05;;;23.67;;
44204;SDS011;30163;42.698;23.344;2023-03-14T03:41:14;52.20;;;23.65;;
44204;SDS011;30163;42.698;23.344;2023-03-14T03:43:39;56.72;;;23.27;;
44204;SDS011;30163;42.698;23.344;2023-03-14T03:46:05;52.83;;;21.88;;
44204;SDS011;30163;42.698;23.344;2023-03-14T03:48:31;64.05;;;23.30;;
44204;SDS011;30163;42.698;23.344;2023-03-14T03:50:56;54.97;;;24.13;;
44204;SDS011;30163;42.698;23.344;2023-03-14T03:53:22;63.15;;;22.42;;
44204;SDS011;30163;42.698;23.344;2023-03-14T03:55:47;48.30;;;21.42;;
44204;SDS011;30163;42.698;23.344;2023-03-14T03:58:12;58.85;;;22.98;;
44204;SDS011;30163;42.698;23.344;2023-03-14T04:00:38;62.08;;;21.83;;
44204;SDS011;30163;42.698;23.344;2023-03-14T04:03:04;55.90;;;22.38;;
44204;SDS011;30163;42.698;23.344;2023-03-14T04:05:29;49.53;;;22.42;;
44204;SDS011;30163;42.698;23.344;2023-03-14T04:07:55;53.58;;;22.52;;
44204;SDS011;30163;42.698;23.344;2023-03-14T04:10:20;58.17;;;23.50;;
44204;SDS011;30163;42.698;23.344;2023-03-14T04:12:46;53.28;;;24.33;;
44204;SDS011;30163;42.698;23.344;2023-03-14T04:15:11;44.85;;;21.85;;
44204;SDS011;30163;42.698;23.344;2023-03-14T04:17:37;61.08;;;24.08;;
44204;SDS011;30163;42.698;23.344;2023-03-14T04:20:02;57.30;;;23.73;;
44204;SDS011;30163;42.698;23.344;2023-03-14T04:22:28;49.58;;;24.00;;
44204;SDS011;30163;42.698;23.344;2023-03-14T04:24:53;57.00;;;23.25;;
44204;SDS011;30163;42.698;23.344;2023-03-14T04:27:19;56.85;;;24.90;;
44204;SDS011;30163;42.698;23.344;2023-03-14T04:29:44;56.60;;;24.15;;
44204;SDS011;30163;42.698;23.344;2023-03-14T04:32:10;64.95;;;25.58;;
44204;SDS011;30163;42.698;23.344;2023-03-14T04:34:35;63.28;;;27.38;;
44204;SDS011;30163;42.698;23.344;2023-03-14T04:37:01;59.30;;;27.30;;
44204;SDS011;30163;42.698;23.344;2023-03-14T04:39:26;61.22;;;27.60;;
44204;SDS011;30163;42.698;23.344;2023-03-14T04:41:52;64.53;;;29.48;;
44204;SDS011;30163;42.698;23.344;2023-03-14T04:44:17;67.10;;;25.80;;
44204;SDS011;30163;42.698;23.344;2023-03-14T04:46:43;60.70;;;25.23;;
44204;SDS011;30163;42.698;23.344;2023-03-14T04:49:08;51.78;;;24.27;;
44204;SDS011;30163;42.698;23.344;2023-03-14T04:51:33;61.25;;;27.25;;
44204;SDS011;30163;42.698;23.344;2023-03-14T04:53:59;64.70;;;29.00;;
44204;SDS011;30163;42.698;23.344;2023-03-14T04:56:24;65.35;;;27.05;;
44204;SDS011;30163;42.698;23.344;2023-03-14T04:58:50;63.28;;;26.95;;
44204;SDS011;30163;42.698;23.344;2023-03-14T05:01:15;80.30;;;36.50;;
44204;SDS011;30163;42.698;23.344;2023-03-14T05:03:41;96.32;;;39.92;;
44204;SDS011;30163;42.698;23.344;2023-03-14T05:06:06;71.38;;;29.90;;
44204;SDS011;30163;42.698;23.344;2023-03-14T05:08:32;66.60;;;25.63;;
44204;SDS011;30163;42.698;23.344;2023-03-14T05:10:57;67.78;;;27.45;;
44204;SDS011;30163;42.698;23.344;2023-03-14T05:13:23;70.13;;;25.42;;
44204;SDS011;30163;42.698;23.344;2023-03-14T05:15:49;60.67;;;26.00;;
44204;SDS011;30163;42.698;23.344;2023-03-14T05:18:18;83.43;;;27.20;;
44204;SDS011;30163;42.698;23.344;2023-03-14T05:20:44;56.38;;;25.50;;
44204;SDS011;30163;42.698;23.344;2023-03-14T05:23:09;79.80;;;28.38;;
44204;SDS011;30163;42.698;23.344;2023-03-14T05:25:35;69.88;;;25.92;;
44204;SDS011;30163;42.698;23.344;2023-03-14T05:28:00;61.72;;;24.85;;
44204;SDS011;30163;42.698;23.344;2023-03-14T05:30:26;77.00;;;26.25;;
44204;SDS011;30163;42.698;23.344;2023-03-14T05:32:53;66.72;;;25.95;;
44204;SDS011;30163;42.698;23.344;2023-03-14T05:35:18;75.03;;;26.95;;
44204;SDS011;30163;42.698;23.344;2023-03-14T05:37:44;71.50;;;25.02;;
44204;SDS011;30163;42.698;23.344;2023-03-14T05:40:10;72.05;;;25.95;;
44204;SDS011;30163;42.698;23.344;2023-03-14T05:42:35;56.22;;;25.58;;
44204;SDS011;30163;42.698;23.344;2023-03-14T05:45:01;67.57;;;25.50;;
44204;SDS011;30163;42.698;23.344;2023-03-14T05:47:27;60.17;;;25.20;;
44204;SDS011;30163;42.698;23.344;2023-03-14T05:49:53;57.72;;;24.83;;
44204;SDS011;30163;42.698;23.344;2023-03-14T05:52:18;63.80;;;28.00;;
44204;SDS011;30163;42.698;23.344;2023-03-14T05:54:44;52.00;;;22.63;;
44204;SDS011;30163;42.698;23.344;2023-03-14T05:57:10;70.07;;;27.50;;
44204;SDS011;30163;42.698;23.344;2023-03-14T05:59:35;63.25;;;24.75;;
44204;SDS011;30163;42.698;23.344;2023-03-14T06:02:00;72.07;;;27.55;;
44204;SDS011;30163;42.698;23.344;2023-03-14T06:04:26;68.15;;;26.15;;
44204;SDS011;30163;42.698;23.344;2023-03-14T06:06:51;58.92;;;23.73;;
44204;SDS011;30163;42.698;23.344;2023-03-14T06:09:17;53.25;;;24.98;;
44204;SDS011;30163;42.698;23.344;2023-03-14T06:11:44;58.25;;;24.23;;
44204;SDS011;30163;42.698;23.344;2023-03-14T06:14:11;60.40;;;23.65;;
44204;SDS011;30163;42.698;23.344;2023-03-14T06:16:36;63.42;;;27.05;;
44204;SDS011;30163;42.698;23.344;2023-03-14T06:19:02;58.85;;;24.35;;
44204;SDS011;30163;42.698;23.344;2023-03-14T06:21:27;65.43;;;27.08;;
44204;SDS011;30163;42.698;23.344;2023-03-14T06:23:53;68.85;;;26.35;;
44204;SDS011;30163;42.698;23.344;2023-03-14T06:26:18;60.13;;;24.33;;
44204;SDS011;30163;42.698;23.344;2023-03-14T06:28:43;60.45;;;27.40;;
44204;SDS011;30163;42.698;23.344;2023-03-14T06:31:09;68.40;;;25.55;;
44204;SDS011;30163;42.698;23.344;2023-03-14T06:33:34;61.13;;;25.02;;
44204;SDS011;30163;42.698;23.344;2023-03-14T06:36:00;57.65;;;23.92;;
44204;SDS011;30163;42.698;23.344;2023-03-14T06:38:25;57.25;;;25.63;;
44204;SDS011;30163;42.698;23.344;2023-03-14T06:40:50;68.15;;;27.60;;
44204;SDS011;30163;42.698;23.344;2023-03-14T06:43:16;78.45;;;34.17;;
44204;SDS011;30163;42.698;23.344;2023-03-14T06:45:41;70.05;;;30.10;;
44204;SDS011;30163;42.698;23.344;2023-03-14T06:48:06;81.75;;;29.17;;
44204;SDS011;30163;42.698;23.344;2023-03-14T06:50:32;66.85;;;25.45;;
44204;SDS011;30163;42.698;23.344;2023-03-14T06:52:57;59.05;;;25.88;;
44204;SDS011;30163;42.698;23.344;2023-03-14T06:55:22;62.00;;;26.38;;
44204;SDS011;30163;42.698;23.344;2023-03-14T06:57:48;71.00;;;25.63;;
44204;SDS011;30163;42.698;23.344;2023-03-14T07:00:13;53.90;;;25.23;;
44204;SDS011;30163;42.698;23.344;2023-03-14T07:02:39;60.80;;;25.63;;
44204;SDS011;30163;42.698;23.344;2023-03-14T07:05:05;79.88;;;24.05;;
44204;SDS011;30163;42.698;23.344;2023-03-14T07:07:31;73.90;;;28.20;;
44204;SDS011;30163;42.698;23.344;2023-03-14T07:09:56;56.30;;;25.20;;
44204;SDS011;30163;42.698;23.344;2023-03-14T07:12:23;72.43;;;25.73;;
44204;SDS011;30163;42.698;23.344;2023-03-14T07:14:48;68.93;;;24.60;;
44204;SDS011;30163;42.698;23.344;2023-03-14T07:17:16;53.42;;;24.77;;
44204;SDS011;30163;42.698;23.344;2023-03-14T07:19:41;61.15;;;22.88;;
44204;SDS011;30163;42.698;23.344;2023-03-14T07:22:06;42.38;;;19.80;;
44204;SDS011;30163;42.698;23.344;2023-03-14T07:24:32;41.80;;;16.92;;
44204;SDS011;30163;42.698;23.344;2023-03-14T07:26:57;33.67;;;15.13;;
44204;SDS011;30163;42.698;23.344;2023-03-14T07:29:22;36.28;;;17.50;;
44204;SDS011;30163;42.698;23.344;2023-03-14T07:31:48;40.38;;;17.98;;
44204;SDS011;30163;42.698;23.344;2023-03-14T07:34:13;56.42;;;20.67;;
44204;SDS011;30163;42.698;23.344;2023-03-14T07:36:39;44.25;;;18.95;;
44204;SDS011;30163;42.698;23.344;2023-03-14T07:39:04;42.28;;;17.77;;
44204;SDS011;30163;42.698;23.344;2023-03-14T07:41:30;30.77;;;16.58;;
44204;SDS011;30163;42.698;23.344;2023-03-14T07:43:56;37.88;;;14.52;;
44204;SDS011;30163;42.698;23.344;2023-03-14T07:46:21;29.20;;;12.60;;
44204;SDS011;30163;42.698;23.344;2023-03-14T07:48:46;25.20;;;13.05;;
44204;SDS011;30163;42.698;23.344;2023-03-14T07:51:12;34.90;;;14.25;;
44204;SDS011;30163;42.698;23.344;2023-03-14T07:53:37;30.35;;;14.57;;
44204;SDS011;30163;42.698;23.344;2023-03-14T07:56:04;33.33;;;13.35;;
44204;SDS011;30163;42.698;23.344;2023-03-14T07:58:30;22.33;;;11.68;;
44204;SDS011;30163;42.698;23.344;2023-03-14T08:00:55;26.05;;;11.95;;
44204;SDS011;30163;42.698;23.344;2023-03-14T08:03:23;22.55;;;10.52;;
44204;SDS011;30163;42.698;23.344;2023-03-14T08:05:49;24.95;;;10.50;;
44204;SDS011;30163;42.698;23.344;2023-03-14T08:08:15;21.88;;;10.10;;
44204;SDS011;30163;42.698;23.344;2023-03-14T08:10:41;27.75;;;10.00;;
44204;SDS011;30163;42.698;23.344;2023-03-14T08:13:06;22.95;;;10.38;;
44204;SDS011;30163;42.698;23.344;2023-03-14T08:15:32;26.83;;;10.00;;
44204;SDS011;30163;42.698;23.344;2023-03-14T08:17:57;19.90;;;9.25;;
44204;SDS011;30163;42.698;23.344;2023-03-14T08:20:24;17.20;;;9.05;;
44204;SDS011;30163;42.698;23.344;2023-03-14T08:22:51;18.90;;;10.93;;
44204;SDS011;30163;42.698;23.344;2023-03-14T08:25:16;23.88;;;11.40;;
44204;SDS011;30163;42.698;23.344;2023-03-14T08:27:42;29.48;;;11.23;;
44204;SDS011;30163;42.698;23.344;2023-03-14T08:30:09;32.47;;;11.70;;
44204;SDS011;30163;42.698;23.344;2023-03-14T08:32:36;34.10;;;13.25;;
44204;SDS011;30163;42.698;23.344;2023-03-14T08:35:02;29.15;;;12.50;;
44204;SDS011;30163;42.698;23.344;2023-03-14T08:37:28;48.35;;;13.02;;
44204;SDS011;30163;42.698;23.344;2023-03-14T08:39:54;31.73;;;10.30;;
44204;SDS011;30163;42.698;23.344;2023-03-14T08:42:19;22.52;;;10.90;;
44204;SDS011;30163;42.698;23.344;2023-03-14T08:44:44;25.98;;;10.63;;
44204;SDS011;30163;42.698;23.344;2023-03-14T08:47:10;22.40;;;9.52;;
44204;SDS011;30163;42.698;23.344;2023-03-14T08:49:36;24.48;;;10.45;;
44204;SDS011;30163;42.698;23.344;2023-03-14T08:52:04;18.35;;;10.73;;
44204;SDS011;30163;42.698;23.344;2023-03-14T08:54:30;23.50;;;10.38;;
44204;SDS011;30163;42.698;23.344;2023-03-14T08:56:56;19.15;;;10.57;;
44204;SDS011;30163;42.698;23.344;2023-03-14T08:59:22;23.73;;;9.57;;
44204;SDS011;30163;42.698;23.344;2023-03-14T09:01:48;21.60;;;8.65;;
44204;SDS011;30163;42.698;23.344;2023-03-14T09:04:13;19.02;;;9.02;;
44204;SDS011;30163;42.698;23.344;2023-03-14T09:06:39;18.63;;;9.35;;
44204;SDS011;30163;42.698;23.344;2023-03-14T09:09:04;17.55;;;8.00;;
44204;SDS011;30163;42.698;23.344;2023-03-14T09:11:30;30.80;;;9.02;;
44204;SDS011;30163;42.698;23.344;2023-03-14T09:13:56;19.50;;;8.10;;
44204;SDS011;30163;42.698;23.344;2023-03-14T09:16:21;17.90;;;9.95;;
44204;SDS011;30163;42.698;23.344;2023-03-14T09:18:48;27.92;;;11.23;;
44204;SDS011;30163;42.698;23.344;2023-03-14T09:21:13;23.27;;;11.25;;
44204;SDS011;30163;42.698;23.344;2023-03-14T09:23:46;27.65;;;13.00;;
44204;SDS011;30163;42.698;23.344;2023-03-14T09:26:12;44.67;;;12.80;;
44204;SDS011;30163;42.698;23.344;2023-03-14T09:28:40;33.35;;;12.30;;
44204;SDS011;30163;42.698;23.344;2023-03-14T09:31:07;26.05;;;10.90;;
44204;SDS011;30163;42.698;23.344;2023-03-14T09:33:34;22.70;;;9.60;;
44204;SDS011;30163;42.698;23.344;2023-03-14T09:36:00;26.92;;;10.32;;
44204;SDS011;30163;42.698;23.344;2023-03-14T09:38:25;22.83;;;9.68;;
44204;SDS011;30163;42.698;23.344;2023-03-14T09:40:51;16.45;;;9.15;;
44204;SDS011;30163;42.698;23.344;2023-03-14T09:43:18;25.92;;;9.45;;
44204;SDS011;30163;42.698;23.344;2023-03-14T09:45:44;24.63;;;9.18;;
44204;SDS011;30163;42.698;23.344;2023-03-14T09:48:21;30.25;;;8.43;;
44204;SDS011;30163;42.698;23.344;2023-03-14T09:50:54;18.20;;;8.18;;
44204;SDS011;30163;42.698;23.344;2023-03-14T09:53:22;23.45;;;9.00;;
44204;SDS011;30163;42.698;23.344;2023-03-14T09:55:50;27.73;;;8.88;;
44204;SDS011;30163;42.698;23.344;2023-03-14T09:58:20;22.77;;;8.70;;
44204;SDS011;30163;42.698;23.344;2023-03-14T10:00:47;23.55;;;8.93;;
44204;SDS011;30163;42.698;23.344;2023-03-14T10:05:46;30.85;;;9.90;;
44204;SDS011;30163;42.698;23.344;2023-03-14T10:08:12;21.55;;;9.82;;
44204;SDS011;30163;42.698;23.344;2023-03-14T10:10:38;26.75;;;10.65;;
44204;SDS011;30163;42.698;23.344;2023-03-14T10:13:13;25.00;;;9.85;;
44204;SDS011;30163;42.698;23.344;2023-03-14T10:15:40;20.58;;;9.30;;
44204;SDS011;30163;42.698;23.344;2023-03-14T10:18:10;21.08;;;10.45;;
44204;SDS011;30163;42.698;23.344;2023-03-14T10:20:38;19.63;;;9.30;;
44204;SDS011;30163;42.698;23.344;2023-03-14T10:23:17;27.25;;;9.63;;
44204;SDS011;30163;42.698;23.344;2023-03-14T10:28:30;17.42;;;8.55;;
44204;SDS011;30163;42.698;23.344;2023-03-14T10:30:57;20.08;;;8.30;;
44204;SDS011;30163;42.698;23.344;2023-03-14T10:33:27;33.00;;;9.32;;
44204;SDS011;30163;42.698;23.344;2023-03-14T10:36:17;21.23;;;8.13;;
44204;SDS011;30163;42.698;23.344;2023-03-14T10:38:45;15.57;;;7.70;;
44204;SDS011;30163;42.698;23.344;2023-03-14T10:41:44;30.63;;;7.75;;
44204;SDS011;30163;42.698;23.344;2023-03-14T10:44:02;13.95;;;6.68;;
44204;SDS011;30163;42.698;23.344;2023-03-14T10:46:37;11.00;;;6.82;;
44204;SDS011;30163;42.698;23.344;2023-03-14T10:49:04;19.98;;;6.70;;
44204;SDS011;30163;42.698;23.344;2023-03-14T10:51:31;16.23;;;5.50;;
44204;SDS011;30163;42.698;23.344;2023-03-14T10:56:26;17.90;;;6.03;;
44204;SDS011;30163;42.698;23.344;2023-03-14T10:58:54;13.52;;;6.07;;
44204;SDS011;30163;42.698;23.344;2023-03-14T11:07:08;36.95;;;7.65;;
44204;SDS011;30163;42.698;23.344;2023-03-14T11:14:57;19.95;;;6.40;;
44204;SDS011;30163;42.698;23.344;2023-03-14T11:17:27;12.18;;;5.47;;
44204;SDS011;30163;42.698;23.344;2023-03-14T11:20:17;14.40;;;5.82;;
44204;SDS011;30163;42.698;23.344;2023-03-14T11:23:08;10.75;;;5.03;;
44204;SDS011;30163;42.698;23.344;2023-03-14T11:41:24;14.70;;;4.88;;
44204;SDS011;30163;42.698;23.344;2023-03-14T11:43:55;20.23;;;5.18;;
44204;SDS011;30163;42.698;23.344;2023-03-14T11:46:23;19.25;;;5.50;;
44204;SDS011;30163;42.698;23.344;2023-03-14T11:51:29;15.30;;;5.18;;
44204;SDS011;30163;42.698;23.344;2023-03-14T11:56:33;17.58;;;5.57;;
44204;SDS011;30163;42.698;23.344;2023-03-14T12:02:16;11.70;;;4.53;;
44204;SDS011;30163;42.698;23.344;2023-03-14T12:05:14;7.85;;;4.32;;
44204;SDS011;30163;42.698;23.344;2023-03-14T12:10:39;11.32;;;3.65;;
44204;SDS011;30163;42.698;23.344;2023-03-14T12:13:08;4.85;;;2.92;;
44204;SDS011;30163;42.698;23.344;2023-03-14T12:15:36;6.40;;;3.40;;
44204;SDS011;30163;42.698;23.344;2023-03-14T12:18:11;7.65;;;3.25;;
44204;SDS011;30163;42.698;23.344;2023-03-14T12:20:53;10.85;;;3.10;;
44204;SDS011;30163;42.698;23.344;2023-03-14T12:23:20;9.02;;;3.28;;
44204;SDS011;30163;42.698;23.344;2023-03-14T12:25:46;7.35;;;3.35;;
44204;SDS011;30163;42.698;23.344;2023-03-14T12:28:19;4.78;;;3.35;;
44204;SDS011;30163;42.698;23.344;2023-03-14T12:30:46;8.02;;;2.90;;
44204;SDS011;30163;42.698;23.344;2023-03-14T12:33:12;8.68;;;2.92;;
44204;SDS011;30163;42.698;23.344;2023-03-14T12:35:47;5.47;;;3.17;;
44204;SDS011;30163;42.698;23.344;2023-03-14T12:43:45;10.15;;;3.53;;
44204;SDS011;30163;42.698;23.344;2023-03-14T12:48:43;11.52;;;3.35;;
44204;SDS011;30163;42.698;23.344;2023-03-14T13:01:48;8.38;;;3.08;;
44204;SDS011;30163;42.698;23.344;2023-03-14T13:04:19;9.95;;;3.63;;
44204;SDS011;30163;42.698;23.344;2023-03-14T13:06:52;7.78;;;3.33;;
44204;SDS011;30163;42.698;23.344;2023-03-14T13:12:14;15.45;;;3.08;;
44204;SDS011;30163;42.698;23.344;2023-03-14T13:14:48;7.40;;;2.60;;
44204;SDS011;30163;42.698;23.344;2023-03-14T13:17:19;13.23;;;3.20;;
44204;SDS011;30163;42.698;23.344;2023-03-14T13:19:53;8.75;;;3.47;;
44204;SDS011;30163;42.698;23.344;2023-03-14T13:22:26;6.93;;;2.83;;
44204;SDS011;30163;42.698;23.344;2023-03-14T13:25:03;9.32;;;2.90;;
44204;SDS011;30163;42.698;23.344;2023-03-14T13:27:31;7.10;;;2.70;;
44204;SDS011;30163;42.698;23.344;2023-03-14T13:29:58;5.78;;;2.78;;
44204;SDS011;30163;42.698;23.344;2023-03-14T13:32:28;5.05;;;2.72;;
44204;SDS011;30163;42.698;23.344;2023-03-14T13:34:57;4.40;;;2.85;;
44204;SDS011;30163;42.698;23.344;2023-03-14T13:37:24;14.77;;;3.00;;
44204;SDS011;30163;42.698;23.344;2023-03-14T13:39:54;5.35;;;2.60;;
44204;SDS011;30163;42.698;23.344;2023-03-14T13:42:26;13.82;;;3.55;;
44204;SDS011;30163;42.698;23.344;2023-03-14T13:44:53;22.45;;;3.42;;
44204;SDS011;30163;42.698;23.344;2023-03-14T13:47:21;6.75;;;3.50;;
44204;SDS011;30163;42.698;23.344;2023-03-14T13:49:46;9.00;;;2.72;;
44204;SDS011;30163;42.698;23.344;2023-03-14T13:52:24;7.78;;;2.63;;
44204;SDS011;30163;42.698;23.344;2023-03-14T13:57:22;5.90;;;2.67;;
44204;SDS011;30163;42.698;23.344;2023-03-14T14:00:01;21.17;;;3.47;;
44204;SDS011;30163;42.698;23.344;2023-03-14T14:02:32;8.27;;;3.10;;
44204;SDS011;30163;42.698;23.344;2023-03-14T14:04:58;6.63;;;2.88;;
44204;SDS011;30163;42.698;23.344;2023-03-14T14:07:24;12.52;;;2.70;;
44204;SDS011;30163;42.698;23.344;2023-03-14T14:09:53;9.15;;;2.70;;
44204;SDS011;30163;42.698;23.344;2023-03-14T14:12:26;14.70;;;3.95;;
44204;SDS011;30163;42.698;23.344;2023-03-14T14:15:01;12.48;;;3.40;;
44204;SDS011;30163;42.698;23.344;2023-03-14T14:17:33;11.20;;;2.95;;
44204;SDS011;30163;42.698;23.344;2023-03-14T14:22:28;13.32;;;3.50;;
44204;SDS011;30163;42.698;23.344;2023-03-14T14:24:54;5.80;;;3.20;;
44204;SDS011;30163;42.698;23.344;2023-03-14T14:27:24;9.85;;;2.97;;
44204;SDS011;30163;42.698;23.344;2023-03-14T14:30:00;8.98;;;3.35;;
44204;SDS011;30163;42.698;23.344;2023-03-14T14:32:33;10.05;;;3.15;;
44204;SDS011;30163;42.698;23.344;2023-03-14T14:35:03;14.40;;;3.85;;
44204;SDS011;30163;42.698;23.344;2023-03-14T14:37:42;9.65;;;3.65;;
44204;SDS011;30163;42.698;23.344;2023-03-14T14:42:38;5.78;;;2.92;;
44204;SDS011;30163;42.698;23.344;2023-03-14T14:45:05;12.85;;;2.83;;
44204;SDS011;30163;42.698;23.344;2023-03-14T14:47:32;10.73;;;3.42;;
44204;SDS011;30163;42.698;23.344;2023-03-14T14:49:59;12.60;;;3.03;;
44204;SDS011;30163;42.698;23.344;2023-03-14T14:52:43;8.70;;;3.25;;
44204;SDS011;30163;42.698;23.344;2023-03-14T14:55:51;11.75;;;3.28;;
44204;SDS011;30163;42.698;23.344;2023-03-14T14:58:09;10.73;;;3.30;;
44204;SDS011;30163;42.698;23.344;2023-03-14T15:00:39;9.95;;;3.88;;
44204;SDS011;30163;42.698;23.344;2023-03-14T15:03:05;11.43;;;4.00;;
44204;SDS011;30163;42.698;23.344;2023-03-14T15:05:30;14.85;;;4.00;;
44204;SDS011;30163;42.698;23.344;2023-03-14T15:08:00;14.27;;;3.38;;
44204;SDS011;30163;42.698;23.344;2023-03-14T15:10:26;6.40;;;3.60;;
44204;SDS011;30163;42.698;23.344;2023-03-14T15:12:51;9.52;;;3.90;;
44204;SDS011;30163;42.698;23.344;2023-03-14T15:15:17;16.63;;;4.05;;
44204;SDS011;30163;42.698;23.344;2023-03-14T15:17:43;20.92;;;3.60;;
44204;SDS011;30163;42.698;23.344;2023-03-14T15:20:13;22.05;;;3.90;;
44204;SDS011;30163;42.698;23.344;2023-03-14T15:22:40;16.58;;;3.75;;
44204;SDS011;30163;42.698;23.344;2023-03-14T15:25:06;19.17;;;4.00;;
44204;SDS011;30163;42.698;23.344;2023-03-14T15:27:31;9.20;;;3.95;;
44204;SDS011;30163;42.698;23.344;2023-03-14T15:29:57;10.35;;;4.63;;
44204;SDS011;30163;42.698;23.344;2023-03-14T15:32:24;9.05;;;4.75;;
44204;SDS011;30163;42.698;23.344;2023-03-14T15:34:49;16.50;;;5.10;;
44204;SDS011;30163;42.698;23.344;2023-03-14T15:37:15;13.00;;;4.40;;